sensor_id;sensor_type;location;lat;lon;timestamp;P1;durP1;ratioP1;P2;durP2;ratioP2
16784;SDS011;8509;52.178;5.404;2024-03-23T00:55:13;11.88;;;3.22;;
16784;SDS011;8509;52.178;5.404;2024-03-23T00:57:39;20.05;;;3.92;;
16784;SDS011;8509;52.178;5.404;2024-03-23T01:00:05;12.18;;;3.15;;
16784;SDS011;8509;52.178;5.404;2024-03-23T01:02:31;8.68;;;3.25;;
16784;SDS011;8509;52.178;5.404;2024-03-23T01:04:59;16.67;;;3.58;;
16784;SDS011;8509;52.178;5.404;2024-03-23T01:07:24;6.68;;;2.53;;
16784;SDS011;8509;52.178;5.404;2024-03-23T01:09:50;18.95;;;4.63;;
16784;SDS011;8509;52.178;5.404;2024-03-23T01:12:19;9.98;;;3.42;;
16784;SDS011;8509;52.178;5.404;2024-03-23T01:14:44;11.43;;;3.58;;
16784;SDS011;8509;52.178;5.404;2024-03-23T01:17:10;9.20;;;3.70;;
16784;SDS011;8509;52.178;5.404;2024-03-23T01:19:36;18.98;;;4.50;;
16784;SDS011;8509;52.178;5.404;2024-03-23T01:22:04;10.43;;;3.58;;
16784;SDS011;8509;52.178;5.404;2024-03-23T01:24:30;11.25;;;3.83;;
16784;SDS011;8509;52.178;5.404;2024-03-23T01:26:55;15.15;;;3.13;;
16784;SDS011;8509;52.178;5.404;2024-03-23T01:29:22;12.98;;;4.72;;
16784;SDS011;8509;52.178;5.404;2024-03-23T01:31:48;11.77;;;2.92;;
16784;SDS011;8509;52.178;5.404;2024-03-23T01:34:14;12.85;;;4.80;;
16784;SDS011;8509;52.178;5.404;2024-03-23T01:36:39;8.70;;;3.00;;
16784;SDS011;8509;52.178;5.404;2024-03-23T01:39:05;13.57;;;3.10;;
16784;SDS011;8509;52.178;5.404;2024-03-23T01:41:34;12.48;;;2.92;;
16784;SDS011;8509;52.178;5.404;2024-03-23T01:44:01;9.65;;;4.10;;
16784;SDS011;8509;52.178;5.404;2024-03-23T01:46:37;18.38;;;2.95;;
16784;SDS011;8509;52.178;5.404;2024-03-23T01:49:04;13.07;;;3.55;;
16784;SDS011;8509;52.178;5.404;2024-03-23T01:51:30;9.63;;;2.85;;
16784;SDS011;8509;52.178;5.404;2024-03-23T01:53:57;14.07;;;4.20;;
16784;SDS011;8509;52.178;5.404;2024-03-23T01:56:25;14.88;;;2.75;;
16784;SDS011;8509;52.178;5.404;2024-03-23T01:58:51;4.30;;;2.97;;
16784;SDS011;8509;52.178;5.404;2024-03-23T02:01:17;12.98;;;3.13;;
16784;SDS011;8509;52.178;5.404;2024-03-23T02:03:44;7.60;;;3.30;;
16784;SDS011;8509;52.178;5.404;2024-03-23T02:06:10;13.27;;;3.22;;
16784;SDS011;8509;52.178;5.404;2024-03-23T02:08:35;7.40;;;3.00;;
16784;SDS011;8509;52.178;5.404;2024-03-23T02:11:01;14.43;;;3.20;;
16784;SDS011;8509;52.178;5.404;2024-03-23T02:13:27;9.95;;;3.70;;
16784;SDS011;8509;52.178;5.404;2024-03-23T02:15:53;7.32;;;2.78;;
16784;SDS011;8509;52.178;5.404;2024-03-23T02:18:19;12.90;;;2.88;;
16784;SDS011;8509;52.178;5.404;2024-03-23T02:20:44;19.45;;;4.05;;
16784;SDS011;8509;52.178;5.404;2024-03-23T02:23:13;12.82;;;3.38;;
16784;SDS011;8509;52.178;5.404;2024-03-23T02:25:45;10.88;;;2.78;;
16784;SDS011;8509;52.178;5.404;2024-03-23T02:28:11;10.18;;;2.47;;
16784;SDS011;8509;52.178;5.404;2024-03-23T02:30:37;10.40;;;3.17;;
16784;SDS011;8509;52.178;5.404;2024-03-23T02:33:03;7.15;;;2.30;;
16784;SDS011;8509;52.178;5.404;2024-03-23T02:35:29;11.98;;;3.42;;
16784;SDS011;8509;52.178;5.404;2024-03-23T02:37:55;13.55;;;3.35;;
16784;SDS011;8509;52.178;5.404;2024-03-23T02:40:22;8.57;;;2.25;;
16784;SDS011;8509;52.178;5.404;2024-03-23T02:42:48;8.55;;;2.35;;
16784;SDS011;8509;52.178;5.404;2024-03-23T02:45:14;9.68;;;2.53;;
16784;SDS011;8509;52.178;5.404;2024-03-23T02:47:40;7.60;;;2.67;;
16784;SDS011;8509;52.178;5.404;2024-03-23T02:50:06;10.68;;;2.72;;
16784;SDS011;8509;52.178;5.404;2024-03-23T02:52:32;9.32;;;3.20;;
16784;SDS011;8509;52.178;5.404;2024-03-23T02:54:58;20.92;;;4.07;;
16784;SDS011;8509;52.178;5.404;2024-03-23T02:57:23;8.55;;;2.30;;
16784;SDS011;8509;52.178;5.404;2024-03-23T02:59:49;13.30;;;2.92;;
16784;SDS011;8509;52.178;5.404;2024-03-23T03:02:15;9.13;;;2.88;;
16784;SDS011;8509;52.178;5.404;2024-03-23T03:04:41;14.27;;;2.95;;
16784;SDS011;8509;52.178;5.404;2024-03-23T03:07:07;3.05;;;2.45;;
16784;SDS011;8509;52.178;5.404;2024-03-23T03:09:33;11.20;;;2.42;;
16784;SDS011;8509;52.178;5.404;2024-03-23T03:12:00;10.73;;;2.13;;
16784;SDS011;8509;52.178;5.404;2024-03-23T03:14:29;7.55;;;2.28;;
16784;SDS011;8509;52.178;5.404;2024-03-23T03:16:55;5.43;;;2.42;;
16784;SDS011;8509;52.178;5.404;2024-03-23T03:19:20;6.72;;;2.30;;
16784;SDS011;8509;52.178;5.404;2024-03-23T03:21:47;9.63;;;2.13;;
16784;SDS011;8509;52.178;5.404;2024-03-23T03:24:13;12.75;;;1.70;;
16784;SDS011;8509;52.178;5.404;2024-03-23T03:26:39;2.50;;;1.83;;
16784;SDS011;8509;52.178;5.404;2024-03-23T03:29:05;12.38;;;2.33;;
16784;SDS011;8509;52.178;5.404;2024-03-23T03:31:30;4.32;;;1.80;;
16784;SDS011;8509;52.178;5.404;2024-03-23T03:33:56;6.00;;;1.88;;
16784;SDS011;8509;52.178;5.404;2024-03-23T03:36:22;16.27;;;2.10;;
16784;SDS011;8509;52.178;5.404;2024-03-23T03:38:48;6.45;;;1.10;;
16784;SDS011;8509;52.178;5.404;2024-03-23T03:41:13;4.03;;;1.90;;
16784;SDS011;8509;52.178;5.404;2024-03-23T03:43:39;5.40;;;2.20;;
16784;SDS011;8509;52.178;5.404;2024-03-23T03:46:05;5.20;;;1.40;;
16784;SDS011;8509;52.178;5.404;2024-03-23T03:48:33;6.93;;;1.77;;
16784;SDS011;8509;52.178;5.404;2024-03-23T03:50:59;3.38;;;1.40;;
16784;SDS011;8509;52.178;5.404;2024-03-23T03:53:25;3.92;;;1.27;;
16784;SDS011;8509;52.178;5.404;2024-03-23T03:55:52;12.38;;;2.28;;
16784;SDS011;8509;52.178;5.404;2024-03-23T03:58:22;10.15;;;1.77;;
16784;SDS011;8509;52.178;5.404;2024-03-23T04:00:47;6.28;;;1.73;;
16784;SDS011;8509;52.178;5.404;2024-03-23T04:03:13;11.57;;;2.35;;
16784;SDS011;8509;52.178;5.404;2024-03-23T04:05:39;9.10;;;2.33;;
16784;SDS011;8509;52.178;5.404;2024-03-23T04:08:05;6.72;;;1.77;;
16784;SDS011;8509;52.178;5.404;2024-03-23T04:10:35;7.95;;;1.83;;
16784;SDS011;8509;52.178;5.404;2024-03-23T04:13:01;11.90;;;1.70;;
16784;SDS011;8509;52.178;5.404;2024-03-23T04:15:29;13.43;;;2.22;;
16784;SDS011;8509;52.178;5.404;2024-03-23T04:17:55;3.58;;;1.23;;
16784;SDS011;8509;52.178;5.404;2024-03-23T04:20:20;10.23;;;2.45;;
16784;SDS011;8509;52.178;5.404;2024-03-23T04:22:46;7.95;;;1.55;;
16784;SDS011;8509;52.178;5.404;2024-03-23T04:25:13;5.25;;;1.75;;
16784;SDS011;8509;52.178;5.404;2024-03-23T04:27:39;4.22;;;1.20;;
16784;SDS011;8509;52.178;5.404;2024-03-23T04:30:07;2.45;;;1.23;;
16784;SDS011;8509;52.178;5.404;2024-03-23T04:32:39;10.65;;;1.45;;
16784;SDS011;8509;52.178;5.404;2024-03-23T04:35:05;9.95;;;1.45;;
16784;SDS011;8509;52.178;5.404;2024-03-23T04:37:31;6.22;;;1.35;;
16784;SDS011;8509;52.178;5.404;2024-03-23T04:39:59;2.45;;;0.98;;
16784;SDS011;8509;52.178;5.404;2024-03-23T04:42:25;8.10;;;1.40;;
16784;SDS011;8509;52.178;5.404;2024-03-23T04:44:51;3.60;;;1.10;;
16784;SDS011;8509;52.178;5.404;2024-03-23T04:47:17;6.95;;;0.90;;
16784;SDS011;8509;52.178;5.404;2024-03-23T04:49:43;4.25;;;1.33;;
16784;SDS011;8509;52.178;5.404;2024-03-23T04:52:09;6.70;;;1.45;;
16784;SDS011;8509;52.178;5.404;2024-03-23T04:54:35;11.25;;;2.83;;
16784;SDS011;8509;52.178;5.404;2024-03-23T04:57:00;1.30;;;1.05;;
16784;SDS011;8509;52.178;5.404;2024-03-23T04:59:26;8.60;;;1.42;;
16784;SDS011;8509;52.178;5.404;2024-03-23T05:01:52;5.07;;;1.67;;
16784;SDS011;8509;52.178;5.404;2024-03-23T05:04:17;0.60;;;0.60;;
16784;SDS011;8509;52.178;5.404;2024-03-23T05:06:44;5.43;;;1.15;;
16784;SDS011;8509;52.178;5.404;2024-03-23T05:09:11;8.43;;;1.15;;
16784;SDS011;8509;52.178;5.404;2024-03-23T05:11:40;1.80;;;1.15;;
16784;SDS011;8509;52.178;5.404;2024-03-23T05:16:35;4.07;;;1.50;;
16784;SDS011;8509;52.178;5.404;2024-03-23T05:19:01;4.40;;;1.30;;
16784;SDS011;8509;52.178;5.404;2024-03-23T05:21:27;6.05;;;1.48;;
16784;SDS011;8509;52.178;5.404;2024-03-23T05:23:53;6.85;;;1.33;;
16784;SDS011;8509;52.178;5.404;2024-03-23T05:26:19;8.00;;;0.88;;
16784;SDS011;8509;52.178;5.404;2024-03-23T05:28:45;14.73;;;1.48;;
16784;SDS011;8509;52.178;5.404;2024-03-23T05:31:12;2.28;;;0.90;;
16784;SDS011;8509;52.178;5.404;2024-03-23T05:33:37;2.20;;;1.05;;
16784;SDS011;8509;52.178;5.404;2024-03-23T05:36:03;13.15;;;1.33;;
16784;SDS011;8509;52.178;5.404;2024-03-23T05:38:29;9.60;;;1.23;;
16784;SDS011;8509;52.178;5.404;2024-03-23T05:43:21;6.72;;;1.30;;
16784;SDS011;8509;52.178;5.404;2024-03-23T05:45:53;9.80;;;1.23;;
16784;SDS011;8509;52.178;5.404;2024-03-23T05:48:20;2.60;;;1.10;;
16784;SDS011;8509;52.178;5.404;2024-03-23T05:50:46;5.57;;;0.85;;
16784;SDS011;8509;52.178;5.404;2024-03-23T05:53:14;2.95;;;1.55;;
16784;SDS011;8509;52.178;5.404;2024-03-23T05:55:48;5.97;;;0.80;;
16784;SDS011;8509;52.178;5.404;2024-03-23T05:58:16;3.03;;;0.90;;
16784;SDS011;8509;52.178;5.404;2024-03-23T06:00:42;5.85;;;2.30;;
16784;SDS011;8509;52.178;5.404;2024-03-23T06:03:08;2.30;;;1.10;;
16784;SDS011;8509;52.178;5.404;2024-03-23T06:05:37;5.47;;;1.10;;
16784;SDS011;8509;52.178;5.404;2024-03-23T06:08:04;2.22;;;0.52;;
16784;SDS011;8509;52.178;5.404;2024-03-23T06:10:30;2.22;;;0.93;;
16784;SDS011;8509;52.178;5.404;2024-03-23T06:12:56;7.32;;;0.82;;
16784;SDS011;8509;52.178;5.404;2024-03-23T06:15:23;11.88;;;1.58;;
16784;SDS011;8509;52.178;5.404;2024-03-23T06:17:49;4.90;;;1.48;;
16784;SDS011;8509;52.178;5.404;2024-03-23T06:20:15;17.00;;;1.77;;
16784;SDS011;8509;52.178;5.404;2024-03-23T06:22:41;5.53;;;1.35;;
16784;SDS011;8509;52.178;5.404;2024-03-23T06:25:07;2.13;;;1.42;;
16784;SDS011;8509;52.178;5.404;2024-03-23T06:27:33;7.30;;;1.13;;
16784;SDS011;8509;52.178;5.404;2024-03-23T06:29:59;3.38;;;1.02;;
16784;SDS011;8509;52.178;5.404;2024-03-23T06:32:25;3.38;;;0.95;;
16784;SDS011;8509;52.178;5.404;2024-03-23T06:34:51;1.08;;;0.80;;
16784;SDS011;8509;52.178;5.404;2024-03-23T06:37:17;4.15;;;1.08;;
16784;SDS011;8509;52.178;5.404;2024-03-23T06:39:42;2.30;;;0.70;;
16784;SDS011;8509;52.178;5.404;2024-03-23T06:42:08;1.70;;;1.48;;
16784;SDS011;8509;52.178;5.404;2024-03-23T06:44:34;3.97;;;1.08;;
16784;SDS011;8509;52.178;5.404;2024-03-23T06:47:00;6.85;;;1.60;;
16784;SDS011;8509;52.178;5.404;2024-03-23T06:49:45;5.13;;;1.20;;
16784;SDS011;8509;52.178;5.404;2024-03-23T06:52:15;2.80;;;0.80;;
16784;SDS011;8509;52.178;5.404;2024-03-23T06:54:41;1.00;;;0.85;;
16784;SDS011;8509;52.178;5.404;2024-03-23T06:57:15;9.98;;;1.38;;
16784;SDS011;8509;52.178;5.404;2024-03-23T06:59:41;4.97;;;1.20;;
16784;SDS011;8509;52.178;5.404;2024-03-23T07:02:07;4.07;;;0.82;;
16784;SDS011;8509;52.178;5.404;2024-03-23T07:04:36;5.10;;;1.85;;
16784;SDS011;8509;52.178;5.404;2024-03-23T07:07:03;3.85;;;1.08;;
16784;SDS011;8509;52.178;5.404;2024-03-23T07:09:29;4.15;;;0.93;;
16784;SDS011;8509;52.178;5.404;2024-03-23T07:11:56;8.55;;;1.63;;
16784;SDS011;8509;52.178;5.404;2024-03-23T07:14:22;3.67;;;1.50;;
16784;SDS011;8509;52.178;5.404;2024-03-23T07:16:48;4.82;;;1.52;;
16784;SDS011;8509;52.178;5.404;2024-03-23T07:19:17;12.65;;;1.90;;
16784;SDS011;8509;52.178;5.404;2024-03-23T07:21:43;3.80;;;2.28;;
16784;SDS011;8509;52.178;5.404;2024-03-23T07:24:13;8.18;;;1.42;;
16784;SDS011;8509;52.178;5.404;2024-03-23T07:26:38;10.85;;;1.35;;
16784;SDS011;8509;52.178;5.404;2024-03-23T07:29:05;15.68;;;2.78;;
16784;SDS011;8509;52.178;5.404;2024-03-23T07:31:31;3.88;;;2.22;;
16784;SDS011;8509;52.178;5.404;2024-03-23T07:33:57;10.30;;;1.92;;
16784;SDS011;8509;52.178;5.404;2024-03-23T07:36:24;6.40;;;1.55;;
16784;SDS011;8509;52.178;5.404;2024-03-23T07:38:50;10.90;;;2.45;;
16784;SDS011;8509;52.178;5.404;2024-03-23T07:41:17;5.43;;;1.58;;
16784;SDS011;8509;52.178;5.404;2024-03-23T07:43:44;4.60;;;1.20;;
16784;SDS011;8509;52.178;5.404;2024-03-23T07:46:11;7.50;;;2.25;;
16784;SDS011;8509;52.178;5.404;2024-03-23T07:48:37;7.45;;;1.63;;
16784;SDS011;8509;52.178;5.404;2024-03-23T07:53:32;3.20;;;1.73;;
16784;SDS011;8509;52.178;5.404;2024-03-23T07:56:00;4.40;;;1.05;;
16784;SDS011;8509;52.178;5.404;2024-03-23T07:58:27;11.25;;;1.70;;
16784;SDS011;8509;52.178;5.404;2024-03-23T08:00:54;2.22;;;1.17;;
16784;SDS011;8509;52.178;5.404;2024-03-23T08:03:20;6.80;;;0.95;;
16784;SDS011;8509;52.178;5.404;2024-03-23T08:05:46;6.75;;;1.58;;
16784;SDS011;8509;52.178;5.404;2024-03-23T08:08:12;2.20;;;1.10;;
16784;SDS011;8509;52.178;5.404;2024-03-23T08:10:50;8.23;;;1.60;;
16784;SDS011;8509;52.178;5.404;2024-03-23T08:13:17;13.32;;;1.45;;
16784;SDS011;8509;52.178;5.404;2024-03-23T08:15:43;6.65;;;1.38;;
16784;SDS011;8509;52.178;5.404;2024-03-23T08:18:12;7.25;;;1.42;;
16784;SDS011;8509;52.178;5.404;2024-03-23T08:20:40;7.10;;;1.42;;
16784;SDS011;8509;52.178;5.404;2024-03-23T08:23:06;4.65;;;0.95;;
16784;SDS011;8509;52.178;5.404;2024-03-23T08:25:33;6.18;;;1.13;;
16784;SDS011;8509;52.178;5.404;2024-03-23T08:28:00;4.40;;;1.40;;
16784;SDS011;8509;52.178;5.404;2024-03-23T08:30:27;4.68;;;0.98;;
16784;SDS011;8509;52.178;5.404;2024-03-23T08:32:53;6.93;;;1.08;;
16784;SDS011;8509;52.178;5.404;2024-03-23T08:35:19;5.85;;;2.03;;
16784;SDS011;8509;52.178;5.404;2024-03-23T08:37:45;3.00;;;0.88;;
16784;SDS011;8509;52.178;5.404;2024-03-23T08:40:10;3.45;;;0.88;;
16784;SDS011;8509;52.178;5.404;2024-03-23T08:42:36;7.65;;;1.60;;
16784;SDS011;8509;52.178;5.404;2024-03-23T08:45:02;3.20;;;1.17;;
16784;SDS011;8509;52.178;5.404;2024-03-23T08:47:28;6.28;;;1.25;;
16784;SDS011;8509;52.178;5.404;2024-03-23T08:49:54;3.42;;;0.93;;
16784;SDS011;8509;52.178;5.404;2024-03-23T08:52:20;6.90;;;0.98;;
16784;SDS011;8509;52.178;5.404;2024-03-23T08:54:48;3.85;;;0.90;;
16784;SDS011;8509;52.178;5.404;2024-03-23T08:57:13;10.25;;;1.65;;
16784;SDS011;8509;52.178;5.404;2024-03-23T08:59:39;4.35;;;0.98;;
16784;SDS011;8509;52.178;5.404;2024-03-23T09:02:05;4.90;;;1.17;;
16784;SDS011;8509;52.178;5.404;2024-03-23T09:04:30;2.17;;;0.88;;
16784;SDS011;8509;52.178;5.404;2024-03-23T09:06:56;3.60;;;1.45;;
16784;SDS011;8509;52.178;5.404;2024-03-23T09:09:24;5.07;;;1.15;;
16784;SDS011;8509;52.178;5.404;2024-03-23T09:11:49;0.35;;;0.35;;
16784;SDS011;8509;52.178;5.404;2024-03-23T09:14:15;1.70;;;0.45;;
16784;SDS011;8509;52.178;5.404;2024-03-23T09:16:44;1.70;;;0.90;;
16784;SDS011;8509;52.178;5.404;2024-03-23T09:19:09;5.72;;;0.70;;
16784;SDS011;8509;52.178;5.404;2024-03-23T09:21:35;1.98;;;0.50;;
16784;SDS011;8509;52.178;5.404;2024-03-23T09:24:01;8.18;;;1.02;;
16784;SDS011;8509;52.178;5.404;2024-03-23T09:26:27;8.88;;;0.93;;
16784;SDS011;8509;52.178;5.404;2024-03-23T09:28:54;0.85;;;0.63;;
16784;SDS011;8509;52.178;5.404;2024-03-23T09:31:20;4.50;;;0.65;;
16784;SDS011;8509;52.178;5.404;2024-03-23T09:33:47;3.63;;;0.70;;
16784;SDS011;8509;52.178;5.404;2024-03-23T09:36:12;3.08;;;1.45;;
16784;SDS011;8509;52.178;5.404;2024-03-23T09:38:38;3.63;;;0.80;;
16784;SDS011;8509;52.178;5.404;2024-03-23T09:41:07;3.33;;;1.25;;
16784;SDS011;8509;52.178;5.404;2024-03-23T09:43:34;6.82;;;1.25;;
16784;SDS011;8509;52.178;5.404;2024-03-23T09:46:00;1.10;;;0.65;;
16784;SDS011;8509;52.178;5.404;2024-03-23T09:48:27;3.55;;;1.27;;
16784;SDS011;8509;52.178;5.404;2024-03-23T09:50:53;2.13;;;0.70;;
16784;SDS011;8509;52.178;5.404;2024-03-23T09:53:19;7.28;;;0.88;;
16784;SDS011;8509;52.178;5.404;2024-03-23T09:55:45;9.52;;;1.92;;
16784;SDS011;8509;52.178;5.404;2024-03-23T09:58:14;5.82;;;0.88;;
16784;SDS011;8509;52.178;5.404;2024-03-23T10:00:41;4.47;;;1.27;;
16784;SDS011;8509;52.178;5.404;2024-03-23T10:03:07;2.60;;;1.08;;
16784;SDS011;8509;52.178;5.404;2024-03-23T10:05:36;4.80;;;1.27;;
16784;SDS011;8509;52.178;5.404;2024-03-23T10:10:44;2.72;;;0.70;;
16784;SDS011;8509;52.178;5.404;2024-03-23T10:13:11;6.85;;;0.80;;
16784;SDS011;8509;52.178;5.404;2024-03-23T10:15:50;1.85;;;0.82;;
16784;SDS011;8509;52.178;5.404;2024-03-23T10:18:20;6.03;;;1.00;;
16784;SDS011;8509;52.178;5.404;2024-03-23T10:21:30;1.95;;;0.73;;
16784;SDS011;8509;52.178;5.404;2024-03-23T10:23:37;2.88;;;0.80;;
16784;SDS011;8509;52.178;5.404;2024-03-23T10:26:22;2.53;;;0.90;;
16784;SDS011;8509;52.178;5.404;2024-03-23T10:28:53;8.43;;;0.90;;
16784;SDS011;8509;52.178;5.404;2024-03-23T10:31:19;6.18;;;1.13;;
16784;SDS011;8509;52.178;5.404;2024-03-23T10:33:46;3.72;;;0.93;;
16784;SDS011;8509;52.178;5.404;2024-03-23T10:36:12;6.30;;;0.70;;
16784;SDS011;8509;52.178;5.404;2024-03-23T10:38:42;9.27;;;0.80;;
16784;SDS011;8509;52.178;5.404;2024-03-23T10:41:08;5.78;;;1.00;;
16784;SDS011;8509;52.178;5.404;2024-03-23T10:43:35;3.40;;;0.52;;
16784;SDS011;8509;52.178;5.404;2024-03-23T10:46:03;2.53;;;1.00;;
16784;SDS011;8509;52.178;5.404;2024-03-23T10:48:29;6.55;;;0.82;;
16784;SDS011;8509;52.178;5.404;2024-03-23T10:50:55;4.07;;;1.30;;
16784;SDS011;8509;52.178;5.404;2024-03-23T10:53:25;0.90;;;0.60;;
16784;SDS011;8509;52.178;5.404;2024-03-23T10:55:52;4.38;;;0.88;;
16784;SDS011;8509;52.178;5.404;2024-03-23T10:58:21;6.30;;;1.35;;
16784;SDS011;8509;52.178;5.404;2024-03-23T11:00:52;4.07;;;0.90;;
16784;SDS011;8509;52.178;5.404;2024-03-23T11:03:33;7.13;;;1.42;;
16784;SDS011;8509;52.178;5.404;2024-03-23T11:06:03;2.92;;;0.85;;
16784;SDS011;8509;52.178;5.404;2024-03-23T11:11:17;6.75;;;1.13;;
16784;SDS011;8509;52.178;5.404;2024-03-23T11:13:46;6.65;;;0.98;;
16784;SDS011;8509;52.178;5.404;2024-03-23T11:16:16;5.68;;;0.80;;
16784;SDS011;8509;52.178;5.404;2024-03-23T11:18:49;3.10;;;0.60;;
16784;SDS011;8509;52.178;5.404;2024-03-23T11:24:19;2.58;;;0.77;;
16784;SDS011;8509;52.178;5.404;2024-03-23T11:26:48;1.95;;;0.70;;
16784;SDS011;8509;52.178;5.404;2024-03-23T11:29:14;3.67;;;0.82;;
16784;SDS011;8509;52.178;5.404;2024-03-23T11:31:48;3.50;;;0.65;;
16784;SDS011;8509;52.178;5.404;2024-03-23T11:34:17;6.60;;;0.98;;
16784;SDS011;8509;52.178;5.404;2024-03-23T11:36:44;5.82;;;1.20;;
16784;SDS011;8509;52.178;5.404;2024-03-23T11:39:13;4.35;;;0.90;;
16784;SDS011;8509;52.178;5.404;2024-03-23T11:41:48;2.15;;;0.68;;
16784;SDS011;8509;52.178;5.404;2024-03-23T11:44:32;3.45;;;0.52;;
16784;SDS011;8509;52.178;5.404;2024-03-23T11:47:08;4.82;;;0.90;;
16784;SDS011;8509;52.178;5.404;2024-03-23T11:49:35;3.83;;;1.02;;
16784;SDS011;8509;52.178;5.404;2024-03-23T11:52:06;4.45;;;0.77;;
16784;SDS011;8509;52.178;5.404;2024-03-23T11:54:32;4.57;;;1.17;;
16784;SDS011;8509;52.178;5.404;2024-03-23T11:57:07;2.45;;;0.80;;
16784;SDS011;8509;52.178;5.404;2024-03-23T11:59:34;1.77;;;0.65;;
16784;SDS011;8509;52.178;5.404;2024-03-23T12:02:00;3.25;;;0.98;;
16784;SDS011;8509;52.178;5.404;2024-03-23T12:04:31;1.90;;;1.20;;
16784;SDS011;8509;52.178;5.404;2024-03-23T12:07:10;5.50;;;1.00;;
16784;SDS011;8509;52.178;5.404;2024-03-23T12:09:40;2.05;;;0.80;;
16784;SDS011;8509;52.178;5.404;2024-03-23T12:14:33;5.57;;;1.35;;
16784;SDS011;8509;52.178;5.404;2024-03-23T12:17:12;3.88;;;1.40;;
16784;SDS011;8509;52.178;5.404;2024-03-23T12:19:39;4.15;;;1.25;;
16784;SDS011;8509;52.178;5.404;2024-03-23T12:22:12;5.43;;;0.90;;
16784;SDS011;8509;52.178;5.404;2024-03-23T12:24:38;7.15;;;1.25;;
16784;SDS011;8509;52.178;5.404;2024-03-23T12:27:10;2.83;;;0.63;;
16784;SDS011;8509;52.178;5.404;2024-03-23T12:29:36;1.33;;;0.73;;
16784;SDS011;8509;52.178;5.404;2024-03-23T12:32:02;2.20;;;0.75;;
16784;SDS011;8509;52.178;5.404;2024-03-23T12:34:28;4.70;;;1.27;;
16784;SDS011;8509;52.178;5.404;2024-03-23T12:36:57;5.93;;;0.93;;
16784;SDS011;8509;52.178;5.404;2024-03-23T12:39:23;1.38;;;0.57;;
16784;SDS011;8509;52.178;5.404;2024-03-23T12:41:50;4.60;;;0.93;;
16784;SDS011;8509;52.178;5.404;2024-03-23T12:44:22;0.63;;;0.47;;
16784;SDS011;8509;52.178;5.404;2024-03-23T12:46:49;1.48;;;0.80;;
16784;SDS011;8509;52.178;5.404;2024-03-23T12:49:14;6.30;;;0.80;;
16784;SDS011;8509;52.178;5.404;2024-03-23T12:52:03;1.80;;;0.63;;
16784;SDS011;8509;52.178;5.404;2024-03-23T12:54:31;3.10;;;0.63;;
16784;SDS011;8509;52.178;5.404;2024-03-23T12:56:56;4.10;;;1.15;;
16784;SDS011;8509;52.178;5.404;2024-03-23T12:59:22;6.53;;;0.73;;
16784;SDS011;8509;52.178;5.404;2024-03-23T13:01:48;7.47;;;0.63;;
16784;SDS011;8509;52.178;5.404;2024-03-23T13:04:13;2.67;;;1.40;;
16784;SDS011;8509;52.178;5.404;2024-03-23T13:06:40;6.75;;;0.90;;
16784;SDS011;8509;52.178;5.404;2024-03-23T13:09:05;3.30;;;0.65;;
16784;SDS011;8509;52.178;5.404;2024-03-23T13:11:31;3.97;;;0.90;;
16784;SDS011;8509;52.178;5.404;2024-03-23T13:13:57;1.60;;;0.70;;
16784;SDS011;8509;52.178;5.404;2024-03-23T13:16:23;1.65;;;0.95;;
16784;SDS011;8509;52.178;5.404;2024-03-23T13:18:49;2.95;;;1.00;;
16784;SDS011;8509;52.178;5.404;2024-03-23T13:21:15;0.80;;;0.50;;
16784;SDS011;8509;52.178;5.404;2024-03-23T13:23:41;8.18;;;1.23;;
16784;SDS011;8509;52.178;5.404;2024-03-23T13:26:16;1.05;;;0.70;;
16784;SDS011;8509;52.178;5.404;2024-03-23T13:28:43;2.40;;;0.95;;
16784;SDS011;8509;52.178;5.404;2024-03-23T13:31:09;3.40;;;0.93;;
16784;SDS011;8509;52.178;5.404;2024-03-23T13:33:36;1.83;;;0.70;;
16784;SDS011;8509;52.178;5.404;2024-03-23T13:36:02;0.93;;;0.50;;
16784;SDS011;8509;52.178;5.404;2024-03-23T13:38:39;0.38;;;0.38;;
16784;SDS011;8509;52.178;5.404;2024-03-23T13:41:20;1.17;;;0.35;;
16784;SDS011;8509;52.178;5.404;2024-03-23T13:43:58;2.72;;;0.40;;
16784;SDS011;8509;52.178;5.404;2024-03-23T13:46:24;1.60;;;0.57;;
16784;SDS011;8509;52.178;5.404;2024-03-23T13:48:50;6.18;;;0.93;;
16784;SDS011;8509;52.178;5.404;2024-03-23T13:51:22;2.00;;;0.88;;
16784;SDS011;8509;52.178;5.404;2024-03-23T13:53:50;0.68;;;0.68;;
16784;SDS011;8509;52.178;5.404;2024-03-23T13:56:16;3.28;;;1.20;;
16784;SDS011;8509;52.178;5.404;2024-03-23T13:58:42;4.32;;;0.50;;
16784;SDS011;8509;52.178;5.404;2024-03-23T14:01:13;3.60;;;0.57;;
16784;SDS011;8509;52.178;5.404;2024-03-23T14:03:45;8.20;;;0.70;;
16784;SDS011;8509;52.178;5.404;2024-03-23T14:06:11;0.52;;;0.40;;
16784;SDS011;8509;52.178;5.404;2024-03-23T14:08:37;4.15;;;0.70;;
16784;SDS011;8509;52.178;5.404;2024-03-23T14:11:07;8.27;;;0.82;;
16784;SDS011;8509;52.178;5.404;2024-03-23T14:13:36;1.77;;;0.82;;
16784;SDS011;8509;52.178;5.404;2024-03-23T14:16:05;3.28;;;1.45;;
16784;SDS011;8509;52.178;5.404;2024-03-23T14:18:37;1.70;;;0.52;;
16784;SDS011;8509;52.178;5.404;2024-03-23T14:21:10;0.90;;;0.50;;
16784;SDS011;8509;52.178;5.404;2024-03-23T14:23:36;2.13;;;1.23;;
16784;SDS011;8509;52.178;5.404;2024-03-23T14:26:02;3.65;;;1.17;;
16784;SDS011;8509;52.178;5.404;2024-03-23T14:28:34;2.85;;;0.68;;
16784;SDS011;8509;52.178;5.404;2024-03-23T14:31:00;4.30;;;1.30;;
16784;SDS011;8509;52.178;5.404;2024-03-23T14:33:38;5.68;;;1.08;;
16784;SDS011;8509;52.178;5.404;2024-03-23T14:36:08;5.15;;;0.77;;
16784;SDS011;8509;52.178;5.404;2024-03-23T14:38:40;5.07;;;1.00;;
16784;SDS011;8509;52.178;5.404;2024-03-23T14:41:17;2.42;;;0.70;;
16784;SDS011;8509;52.178;5.404;2024-03-23T14:43:43;7.95;;;0.80;;
16784;SDS011;8509;52.178;5.404;2024-03-23T14:46:16;2.28;;;0.95;;
16784;SDS011;8509;52.178;5.404;2024-03-23T14:48:54;1.13;;;0.50;;
16784;SDS011;8509;52.178;5.404;2024-03-23T14:51:20;3.55;;;1.35;;
16784;SDS011;8509;52.178;5.404;2024-03-23T14:53:47;2.63;;;0.65;;
16784;SDS011;8509;52.178;5.404;2024-03-23T14:56:14;0.70;;;0.70;;
16784;SDS011;8509;52.178;5.404;2024-03-23T14:59:08;5.05;;;1.10;;
16784;SDS011;8509;52.178;5.404;2024-03-23T15:01:55;3.75;;;0.70;;
16784;SDS011;8509;52.178;5.404;2024-03-23T15:04:23;2.97;;;0.90;;
16784;SDS011;8509;52.178;5.404;2024-03-23T15:06:49;1.20;;;0.52;;
16784;SDS011;8509;52.178;5.404;2024-03-23T15:09:15;2.38;;;0.55;;
16784;SDS011;8509;52.178;5.404;2024-03-23T15:11:41;1.67;;;0.60;;
16784;SDS011;8509;52.178;5.404;2024-03-23T15:14:08;3.85;;;1.05;;
16784;SDS011;8509;52.178;5.404;2024-03-23T15:16:35;2.17;;;0.63;;
16784;SDS011;8509;52.178;5.404;2024-03-23T15:19:07;4.75;;;1.05;;
16784;SDS011;8509;52.178;5.404;2024-03-23T15:21:33;4.03;;;0.73;;
16784;SDS011;8509;52.178;5.404;2024-03-23T15:23:59;5.13;;;0.80;;
16784;SDS011;8509;52.178;5.404;2024-03-23T15:26:24;6.90;;;1.00;;
16784;SDS011;8509;52.178;5.404;2024-03-23T15:28:50;2.38;;;0.82;;
16784;SDS011;8509;52.178;5.404;2024-03-23T15:31:18;0.45;;;0.45;;
16784;SDS011;8509;52.178;5.404;2024-03-23T15:33:44;4.20;;;0.55;;
16784;SDS011;8509;52.178;5.404;2024-03-23T15:36:10;1.77;;;0.60;;
16784;SDS011;8509;52.178;5.404;2024-03-23T15:38:35;0.45;;;0.43;;
16784;SDS011;8509;52.178;5.404;2024-03-23T15:41:04;3.72;;;0.75;;
16784;SDS011;8509;52.178;5.404;2024-03-23T15:43:30;3.15;;;0.75;;
16784;SDS011;8509;52.178;5.404;2024-03-23T15:45:59;1.20;;;0.60;;
16784;SDS011;8509;52.178;5.404;2024-03-23T15:48:29;3.15;;;0.70;;
16784;SDS011;8509;52.178;5.404;2024-03-23T15:51:00;3.83;;;1.02;;
16784;SDS011;8509;52.178;5.404;2024-03-23T15:53:29;4.60;;;0.52;;
16784;SDS011;8509;52.178;5.404;2024-03-23T15:55:59;1.65;;;0.57;;
16784;SDS011;8509;52.178;5.404;2024-03-23T15:58:29;3.90;;;0.60;;
16784;SDS011;8509;52.178;5.404;2024-03-23T16:00:56;6.05;;;1.85;;
16784;SDS011;8509;52.178;5.404;2024-03-23T16:03:48;3.33;;;0.80;;
16784;SDS011;8509;52.178;5.404;2024-03-23T16:06:14;4.32;;;1.33;;
16784;SDS011;8509;52.178;5.404;2024-03-23T16:08:39;1.83;;;1.20;;
16784;SDS011;8509;52.178;5.404;2024-03-23T16:11:06;2.28;;;0.80;;
16784;SDS011;8509;52.178;5.404;2024-03-23T16:13:34;2.55;;;0.50;;
16784;SDS011;8509;52.178;5.404;2024-03-23T16:16:00;3.67;;;1.23;;